Time;durP1;ratioP1;P1;durP2;ratioP2;P2;SDS_P1;SDS_P2;PMS_P1;PMS_P2;Temp;Humidity;BMP_temperature;BMP_pressure;BME280_temperature;BME280_humidity;BME280_pressure;Samples;Min_cycle;Max_cycle;Signal;HPM_P1;HPM_P2
2021/12/25 00:00:07;;;;;;;12.23;10.05;;;10.80;75.10;;;;;;5024767;28;20041;-45
2021/12/25 00:02:35;;;;;;;13.32;11.93;;;10.80;75.20;;;;;;5017342;28;20082;-44
2021/12/25 00:05:04;;;;;;;13.00;11.25;;;10.80;75.10;;;;;;5020273;28;20041;-46
2021/12/25 00:07:32;;;;;;;15.60;10.95;;;10.80;75.10;;;;;;5010164;28;20038;-44
2021/12/25 00:10:00;;;;;;;13.82;11.10;;;10.70;75.10;;;;;;5000137;28;20038;-47
2021/12/25 00:12:27;;;;;;;14.60;11.55;;;10.70;75.10;;;;;;5013450;28;20046;-45
2021/12/25 00:14:54;;;;;;;13.32;10.40;;;10.70;75.10;;;;;;5013293;28;20042;-46
2021/12/25 00:17:26;;;;;;;13.77;10.00;;;10.70;75.00;;;;;;5008151;28;20049;-45
2021/12/25 00:19:56;;;;;;;11.50;9.93;;;10.70;74.90;;;;;;5006195;28;20617;-48
2021/12/25 00:22:22;;;;;;;10.75;9.43;;;10.70;74.80;;;;;;5009637;28;20042;-47
2021/12/25 00:24:49;;;;;;;12.27;9.10;;;10.70;74.60;;;;;;5008846;28;20099;-47
2021/12/25 00:34:49;;;;;;;9.85;8.38;;;10.60;74.60;;;;;;5004289;28;20038;-44
2021/12/25 00:37:17;;;;;;;10.77;8.73;;;10.60;74.60;;;;;;5027177;28;20072;-45
2021/12/25 00:39:45;;;;;;;11.40;9.07;;;10.60;74.60;;;;;;4996287;28;20038;-44
2021/12/25 00:42:13;;;;;;;9.68;7.97;;;10.60;74.70;;;;;;5022165;28;20057;-43
2021/12/25 00:44:41;;;;;;;11.55;9.00;;;10.60;74.70;;;;;;4997034;28;20599;-46
2021/12/25 00:47:08;;;;;;;11.85;8.57;;;10.60;74.60;;;;;;4992488;28;20042;-44
2021/12/25 00:49:35;;;;;;;10.80;8.63;;;10.60;74.50;;;;;;4991497;28;20387;-43
2021/12/25 00:52:02;;;;;;;11.10;8.75;;;10.60;74.40;;;;;;4996237;28;20042;-43
2021/12/25 00:54:31;;;;;;;11.20;8.35;;;10.60;74.40;;;;;;5006871;28;20125;-47
2021/12/25 00:57:00;;;;;;;9.00;7.53;;;10.60;74.40;;;;;;4986216;28;20050;-46
2021/12/25 00:59:27;;;;;;;9.75;7.68;;;10.60;74.40;;;;;;5017834;28;20101;-45
2021/12/25 01:01:54;;;;;;;7.65;6.55;;;10.50;74.30;;;;;;5027644;28;20041;-47
2021/12/25 01:04:21;;;;;;;7.80;6.50;;;10.50;74.20;;;;;;4997902;28;20057;-45
2021/12/25 01:06:50;;;;;;;7.63;6.15;;;10.50;74.20;;;;;;4990541;28;20050;-47
2021/12/25 01:09:17;;;;;;;7.10;5.75;;;10.50;74.30;;;;;;5005216;28;20042;-45
2021/12/25 01:11:47;;;;;;;7.07;6.32;;;10.50;74.10;;;;;;5004274;28;20045;-47
2021/12/25 01:14:30;;;;;;;7.68;5.65;;;10.50;74.00;;;;;;5003643;28;20042;-44
2021/12/25 01:22:55;;;;;;;4.65;4.10;;;10.50;73.80;;;;;;5006300;28;20121;-47
2021/12/25 01:25:33;;;;;;;5.63;4.80;;;10.40;73.70;;;;;;5012234;28;20042;-44
2021/12/25 01:39:29;;;;;;;6.32;4.70;;;10.40;73.60;;;;;;4970046;28;20082;-47
2021/12/25 01:48:43;;;;;;;7.50;4.25;;;10.30;72.90;;;;;;5007057;28;20075;-45
2021/12/25 01:51:11;;;;;;;7.78;4.88;;;10.20;73.10;;;;;;5027942;28;20583;-45
2021/12/25 01:53:38;;;;;;;6.65;4.75;;;10.20;73.40;;;;;;5008461;28;20038;-48
2021/12/25 01:56:05;;;;;;;5.65;4.93;;;10.10;73.30;;;;;;5011913;28;20054;-46
2021/12/25 01:58:33;;;;;;;6.45;5.60;;;10.10;73.40;;;;;;4994623;28;20042;-48
2021/12/25 02:01:02;;;;;;;6.15;5.10;;;10.10;73.90;;;;;;4989666;28;20049;-47
2021/12/25 02:03:30;;;;;;;7.80;6.32;;;10.10;73.30;;;;;;4998114;28;20062;-49
2021/12/25 02:06:08;;;;;;;7.32;6.22;;;10.10;73.30;;;;;;5025633;28;20041;-44
2021/12/25 02:08:36;;;;;;;9.27;6.57;;;10.00;73.30;;;;;;5010032;28;20457;-44
2021/12/25 02:11:03;;;;;;;11.52;7.55;;;10.00;73.30;;;;;;4988747;28;20046;-48
2021/12/25 02:13:35;;;;;;;9.85;7.78;;;10.00;73.20;;;;;;5001073;28;20048;-44
2021/12/25 02:16:11;;;;;;;12.50;8.80;;;10.00;73.40;;;;;;4992915;28;20049;-44
2021/12/25 02:19:00;;;;;;;12.60;9.80;;;10.00;73.40;;;;;;4993883;28;20472;-47
2021/12/25 02:21:58;;;;;;;11.45;9.65;;;10.00;73.60;;;;;;5006502;28;20054;-46
2021/12/25 02:24:25;;;;;;;11.88;9.90;;;9.90;73.40;;;;;;4996425;28;20521;-48
2021/12/25 02:26:51;;;;;;;12.52;9.45;;;9.90;73.40;;;;;;5011513;28;20038;-48
2021/12/25 02:29:23;;;;;;;12.43;9.27;;;9.90;73.30;;;;;;5000529;28;20049;-49
2021/12/25 02:31:51;;;;;;;10.43;7.28;;;9.90;73.30;;;;;;5010037;28;20341;-49
2021/12/25 02:34:18;;;;;;;7.75;6.38;;;9.90;73.00;;;;;;5002100;28;20520;-48
2021/12/25 02:36:45;;;;;;;7.20;6.50;;;9.90;72.80;;;;;;5021925;28;20045;-48
2021/12/25 02:39:15;;;;;;;6.05;5.45;;;9.80;72.60;;;;;;5000046;28;20054;-47
2021/12/25 02:41:42;;;;;;;6.50;5.68;;;9.80;72.60;;;;;;5016961;28;20547;-48
2021/12/25 02:44:09;;;;;;;6.70;5.05;;;9.80;72.60;;;;;;5019244;28;20156;-47
2021/12/25 02:46:42;;;;;;;6.40;5.78;;;9.70;72.60;;;;;;4973488;28;20149;-48
2021/12/25 02:49:12;;;;;;;6.22;5.60;;;9.70;72.60;;;;;;4996814;28;20133;-48
2021/12/25 02:51:47;;;;;;;6.57;5.88;;;9.70;72.50;;;;;;5008392;28;20048;-48
2021/12/25 02:54:16;;;;;;;9.30;7.63;;;9.70;72.50;;;;;;4993902;28;20057;-48
2021/12/25 02:56:44;;;;;;;10.38;8.00;;;9.70;72.70;;;;;;5006538;28;20133;-49
2021/12/25 02:59:12;;;;;;;13.65;10.70;;;9.70;72.80;;;;;;4992316;28;20537;-46
2021/12/25 03:02:08;;;;;;;14.05;11.15;;;9.60;72.80;;;;;;5004421;28;20054;-46
2021/12/25 03:04:40;;;;;;;20.15;12.32;;;9.60;72.60;;;;;;5013196;28;20041;-47
2021/12/25 03:07:08;;;;;;;18.50;13.50;;;9.60;72.70;;;;;;5011145;28;20053;-47
2021/12/25 03:09:36;;;;;;;18.42;13.25;;;9.50;72.80;;;;;;4992070;28;20034;-48
2021/12/25 03:12:06;;;;;;;17.35;13.80;;;9.50;72.90;;;;;;5008503;28;20045;-47
2021/12/25 03:15:01;;;;;;;18.42;13.98;;;9.50;72.90;;;;;;4999816;28;20041;-46
2021/12/25 03:17:29;;;;;;;18.17;14.38;;;9.50;73.00;;;;;;4998809;28;20100;-45
2021/12/25 03:19:58;;;;;;;18.42;14.98;;;9.50;73.10;;;;;;5004011;28;20045;-48
2021/12/25 03:22:25;;;;;;;19.92;15.35;;;9.50;73.30;;;;;;5004569;28;20049;-48
2021/12/25 03:24:52;;;;;;;19.48;15.00;;;9.50;73.40;;;;;;5012136;28;20045;-44
2021/12/25 03:27:19;;;;;;;24.60;17.52;;;9.40;73.40;;;;;;5008623;28;20602;-47
2021/12/25 03:29:46;;;;;;;26.70;18.45;;;9.40;73.40;;;;;;4987436;28;20036;-45
2021/12/25 03:32:14;;;;;;;26.08;19.60;;;9.40;73.40;;;;;;5003892;28;20051;-48
2021/12/25 03:34:44;;;;;;;25.77;18.58;;;9.40;73.30;;;;;;5011945;28;20072;-48
2021/12/25 03:37:10;;;;;;;26.15;19.40;;;9.40;73.40;;;;;;5011923;28;20053;-45
2021/12/25 03:39:37;;;;;;;26.42;20.25;;;9.40;73.40;;;;;;5015331;28;20451;-48
2021/12/25 03:42:07;;;;;;;26.23;19.55;;;9.40;73.20;;;;;;5008596;28;20099;-46
2021/12/25 03:44:35;;;;;;;27.55;20.35;;;9.30;73.20;;;;;;5029441;28;20048;-43
2021/12/25 03:47:12;;;;;;;25.23;18.73;;;9.30;73.20;;;;;;5008665;28;20056;-46
2021/12/25 03:53:09;;;;;;;27.58;19.85;;;9.30;73.20;;;;;;5009004;28;20450;-46
2021/12/25 03:58:07;;;;;;;22.98;17.50;;;9.20;73.20;;;;;;5000333;28;20114;-43
2021/12/25 04:00:36;;;;;;;24.10;18.35;;;9.20;73.30;;;;;;5002977;28;20069;-44
2021/12/25 04:03:08;;;;;;;25.90;18.23;;;9.10;73.30;;;;;;5022131;28;20505;-47
2021/12/25 04:05:41;;;;;;;22.70;17.13;;;9.10;73.40;;;;;;4995666;28;20049;-50
2021/12/25 04:08:10;;;;;;;23.33;16.08;;;9.10;73.30;;;;;;5004913;28;20539;-47
2021/12/25 04:10:44;;;;;;;21.00;15.63;;;9.00;73.10;;;;;;5009327;28;20050;-47
2021/12/25 04:13:13;;;;;;;20.05;15.07;;;9.00;73.20;;;;;;4992503;28;20046;-49
2021/12/25 04:15:41;;;;;;;17.90;14.77;;;9.00;73.30;;;;;;4995860;28;20053;-47
2021/12/25 04:18:09;;;;;;;22.05;14.90;;;9.00;73.30;;;;;;5004075;28;20080;-48
2021/12/25 04:20:36;;;;;;;20.45;15.70;;;8.90;73.30;;;;;;5011574;28;20594;-47
2021/12/25 04:23:09;;;;;;;20.83;14.98;;;8.90;73.30;;;;;;4995274;28;20700;-49
2021/12/25 04:25:38;;;;;;;18.58;15.15;;;8.90;73.20;;;;;;5020210;28;20499;-49
2021/12/25 04:28:17;;;;;;;18.65;13.68;;;8.90;73.10;;;;;;5030435;28;20480;-47
2021/12/25 04:50:04;;;;;;;17.08;13.77;;;8.60;73.00;;;;;;5002107;28;20390;-50
2021/12/25 05:04:03;;;;;;;13.18;11.80;;;8.50;73.30;;;;;;5010014;28;20132;-50
2021/12/25 05:06:37;;;;;;;14.00;11.80;;;8.40;73.20;;;;;;4991978;28;20070;-50
2021/12/25 05:09:05;;;;;;;13.18;11.77;;;8.40;73.10;;;;;;5004067;28;20047;-47
2021/12/25 05:11:32;;;;;;;14.85;11.88;;;8.40;73.20;;;;;;4996667;28;20046;-48
2021/12/25 05:13:59;;;;;;;14.45;12.60;;;8.40;73.10;;;;;;5000915;28;20052;-46
2021/12/25 05:16:37;;;;;;;15.43;11.90;;;8.30;73.10;;;;;;4993350;28;20136;-46
2021/12/25 05:19:04;;;;;;;13.10;11.43;;;8.30;73.10;;;;;;4997902;28;20069;-46
2021/12/25 05:21:31;;;;;;;16.65;13.07;;;8.30;73.20;;;;;;5008230;28;20089;-45
2021/12/25 05:23:59;;;;;;;15.77;11.45;;;8.20;73.00;;;;;;5000101;28;20046;-46
2021/12/25 05:26:32;;;;;;;14.43;12.40;;;8.20;73.00;;;;;;5007906;28;20056;-46
2021/12/25 05:29:01;;;;;;;16.33;13.38;;;8.20;73.20;;;;;;4992060;28;20113;-47
2021/12/25 05:31:35;;;;;;;17.45;13.15;;;8.20;73.20;;;;;;5009060;28;20096;-46
2021/12/25 05:34:29;;;;;;;16.33;13.07;;;8.10;73.30;;;;;;4993252;28;20056;-45
2021/12/25 05:37:07;;;;;;;17.00;13.50;;;8.10;73.40;;;;;;4977536;28;20057;-46
2021/12/25 05:39:52;;;;;;;16.08;12.52;;;8.10;73.30;;;;;;5021000;28;20125;-46
2021/12/25 05:42:23;;;;;;;16.88;12.52;;;8.10;73.10;;;;;;5007047;28;20512;-46
2021/12/25 05:44:52;;;;;;;16.23;12.95;;;8.10;73.10;;;;;;5014402;28;20041;-47
2021/12/25 05:47:26;;;;;;;16.85;13.25;;;8.00;73.20;;;;;;5019965;28;20532;-47
2021/12/25 05:50:00;;;;;;;16.25;12.65;;;8.00;73.20;;;;;;5005837;28;20037;-47
2021/12/25 05:52:56;;;;;;;13.68;10.95;;;8.00;73.10;;;;;;5003894;28;20132;-46
2021/12/25 05:55:42;;;;;;;18.73;13.38;;;8.00;73.10;;;;;;5021979;28;20043;-47
2021/12/25 05:58:28;;;;;;;16.45;13.27;;;8.00;73.10;;;;;;5016338;28;20052;-46
2021/12/25 06:01:13;;;;;;;16.45;13.73;;;7.90;73.20;;;;;;5005992;28;20136;-45
2021/12/25 06:03:40;;;;;;;20.58;14.98;;;7.90;73.10;;;;;;5014208;28;20060;-45
2021/12/25 06:06:07;;;;;;;19.70;15.20;;;7.90;73.00;;;;;;5003447;28;20050;-46
2021/12/25 06:08:35;;;;;;;17.27;14.43;;;7.90;73.10;;;;;;5031106;23;20094;-76
2021/12/25 06:11:04;;;;;;;17.60;14.45;;;7.80;73.00;;;;;;5028128;28;20045;-76
2021/12/25 06:13:38;;;;;;;16.77;13.90;;;7.80;72.90;;;;;;5021857;28;20037;-76
2021/12/25 06:16:05;;;;;;;18.63;14.30;;;7.80;72.80;;;;;;5020105;28;20048;-76
2021/12/25 06:18:58;;;;;;;17.95;13.60;;;7.80;72.90;;;;;;5015926;28;20050;-76
2021/12/25 06:21:25;;;;;;;15.68;12.73;;;7.70;72.70;;;;;;5026238;28;20539;-76
2021/12/25 06:24:07;;;;;;;17.90;13.57;;;7.70;72.60;;;;;;5025951;28;20045;-75
2021/12/25 06:26:45;;;;;;;17.90;13.43;;;7.70;72.60;;;;;;5027144;28;20052;-76
2021/12/25 06:29:32;;;;;;;20.13;14.10;;;7.70;72.60;;;;;;5027917;28;20515;-76
2021/12/25 06:32:22;;;;;;;21.23;14.55;;;7.60;72.60;;;;;;5015269;28;20048;-76
2021/12/25 06:35:02;;;;;;;18.85;14.60;;;7.60;72.60;;;;;;5022031;28;20111;-77
2021/12/25 06:37:54;;;;;;;21.00;15.10;;;7.60;72.70;;;;;;5008223;28;20057;-77
2021/12/25 06:40:34;;;;;;;23.77;16.92;;;7.50;72.70;;;;;;5051977;28;20050;-78
2021/12/25 06:43:02;;;;;;;23.25;17.30;;;7.50;72.70;;;;;;5038745;28;20053;-77
2021/12/25 06:45:29;;;;;;;23.08;16.02;;;7.50;72.70;;;;;;5015131;28;20055;-77
2021/12/25 06:47:57;;;;;;;24.00;16.75;;;7.40;72.70;;;;;;5045138;28;20047;-77
2021/12/25 06:50:44;;;;;;;22.88;16.50;;;7.40;72.70;;;;;;5042669;28;20144;-77
2021/12/25 06:53:31;;;;;;;24.17;15.75;;;7.40;72.60;;;;;;5033620;28;20049;-75
2021/12/25 06:56:09;;;;;;;21.90;15.00;;;7.30;73.10;;;;;;5028526;28;20033;-75
2021/12/25 06:59:08;;;;;;;20.10;15.00;;;7.30;72.50;;;;;;5033418;28;20052;-75
2021/12/25 07:01:41;;;;;;;21.25;14.80;;;7.30;72.50;;;;;;5007305;28;20156;-73
2021/12/25 07:04:19;;;;;;;20.08;13.90;;;7.30;72.30;;;;;;5021141;28;20049;-73
2021/12/25 07:07:25;;;;;;;20.15;14.05;;;7.20;72.30;;;;;;4964217;28;20758;-74
2021/12/25 07:10:07;;;;;;;17.98;14.15;;;7.10;72.10;;;;;;4950742;28;20054;-74
2021/12/25 07:12:54;;;;;;;18.35;13.27;;;7.10;72.00;;;;;;5014233;28;20051;-74
2021/12/25 07:15:36;;;;;;;19.50;14.13;;;7.10;72.10;;;;;;5006477;28;20048;-74
2021/12/25 07:18:11;;;;;;;18.98;12.95;;;7.00;72.00;;;;;;5050418;28;20106;-74
2021/12/25 07:20:50;;;;;;;21.17;14.25;;;7.00;72.00;;;;;;5018729;28;20037;-74
2021/12/25 07:23:46;;;;;;;22.92;14.48;;;7.00;72.70;;;;;;5017631;28;20051;-74
2021/12/25 07:26:23;;;;;;;20.17;14.60;;;6.90;72.10;;;;;;5029048;28;20049;-74
2021/12/25 07:29:09;;;;;;;20.13;13.68;;;6.90;72.30;;;;;;5026529;28;20503;-74
2021/12/25 07:31:36;;;;;;;23.02;14.93;;;6.80;72.20;;;;;;5012010;28;20044;-73
2021/12/25 07:34:03;;;;;;;21.95;15.38;;;6.80;72.20;;;;;;5027228;28;20045;-73
2021/12/25 07:36:29;;;;;;;20.05;14.43;;;6.80;72.00;;;;;;5047143;28;20048;-74
2021/12/25 07:38:57;;;;;;;25.48;17.73;;;6.70;72.00;;;;;;5048118;28;20045;-74
2021/12/25 07:41:24;;;;;;;27.40;17.52;;;6.70;72.10;;;;;;5025065;28;20517;-74
2021/12/25 07:43:51;;;;;;;24.23;15.32;;;6.70;72.10;;;;;;4985105;28;20045;-73
2021/12/25 07:46:23;;;;;;;;;;;6.60;72.20;;;;;;5016953;28;20075;-74
2021/12/25 07:48:50;;;;;;;20.52;13.95;;;6.70;72.20;;;;;;4994530;28;19929;-73
2021/12/25 07:51:17;;;;;;;21.13;14.48;;;6.60;72.30;;;;;;5030880;28;20042;-74
2021/12/25 07:53:45;;;;;;;19.38;14.20;;;6.60;72.30;;;;;;5007141;28;20095;-74
2021/12/25 07:56:15;;;;;;;18.35;14.10;;;6.60;72.40;;;;;;5023738;28;20156;-73
2021/12/25 07:58:44;;;;;;;21.13;14.55;;;6.60;72.40;;;;;;5024839;28;20899;-73
2021/12/25 08:01:11;;;;;;;21.60;14.65;;;6.60;72.20;;;;;;5021928;28;20412;-73
2021/12/25 08:03:38;;;;;;;19.88;14.63;;;6.60;72.20;;;;;;5005434;28;20048;-74
2021/12/25 08:06:05;;;;;;;19.10;13.98;;;6.50;72.00;;;;;;5027822;28;20543;-74
2021/12/25 08:08:32;;;;;;;20.23;14.20;;;6.50;72.00;;;;;;5009591;28;20048;-73
2021/12/25 08:10:59;;;;;;;19.58;14.35;;;6.50;72.30;;;;;;5028584;28;20547;-73
2021/12/25 08:13:26;;;;;;;20.75;14.82;;;6.40;72.30;;;;;;5010811;28;20072;-73
2021/12/25 08:15:53;;;;;;;22.27;13.98;;;6.40;72.20;;;;;;5036886;28;20048;-73
2021/12/25 08:18:20;;;;;;;22.13;15.35;;;6.50;72.40;;;;;;5006497;28;20045;-73
2021/12/25 08:21:16;;;;;;;21.13;14.27;;;6.40;73.00;;;;;;5028479;28;20056;-73
2021/12/25 08:24:23;;;;;;;19.50;13.35;;;6.40;72.30;;;;;;5000160;28;20061;-52
2021/12/25 08:27:10;;;;;;;20.25;14.23;;;6.40;72.30;;;;;;5022046;28;20132;-51
2021/12/25 08:29:39;;;;;;;20.95;15.98;;;6.40;72.40;;;;;;5002052;28;20524;-51
2021/12/25 08:32:25;;;;;;;18.55;13.52;;;6.40;72.30;;;;;;4985648;28;20441;-51
2021/12/25 08:35:14;;;;;;;17.65;13.45;;;6.40;72.40;;;;;;4969588;28;20099;-52
2021/12/25 08:37:43;;;;;;;20.25;14.32;;;6.40;72.40;;;;;;4995384;28;20108;-49
2021/12/25 08:40:12;;;;;;;21.05;13.77;;;6.30;72.40;;;;;;5002852;28;20050;-49
2021/12/25 08:42:46;;;;;;;19.42;13.85;;;6.30;72.50;;;;;;4995370;28;20246;-52
2021/12/25 08:48:02;;;;;;;18.45;13.48;;;6.30;72.60;;;;;;4994679;28;20053;-48
2021/12/25 08:50:29;;;;;;;24.23;14.77;;;6.40;72.70;;;;;;5001134;28;20117;-50
2021/12/25 08:52:56;;;;;;;20.23;13.60;;;6.30;72.40;;;;;;4988407;28;20062;-48
2021/12/25 08:55:23;;;;;;;21.30;13.82;;;6.40;72.40;;;;;;5005867;28;20825;-52
2021/12/25 08:57:50;;;;;;;19.55;13.32;;;6.30;72.30;;;;;;5001635;28;20571;-52
2021/12/25 09:00:19;;;;;;;20.05;13.63;;;6.30;72.20;;;;;;5007979;28;20108;-53
2021/12/25 09:02:48;;;;;;;18.88;13.52;;;6.30;72.20;;;;;;4999007;28;20050;-50
2021/12/25 09:05:15;;;;;;;19.58;13.52;;;6.30;72.20;;;;;;5005086;28;20752;-52
2021/12/25 09:07:42;;;;;;;22.52;13.57;;;6.40;72.30;;;;;;5008741;28;20135;-52
2021/12/25 09:10:09;;;;;;;20.50;13.93;;;6.30;72.30;;;;;;4990468;28;20801;-49
2021/12/25 09:12:41;;;;;;;22.05;15.05;;;6.40;72.30;;;;;;4990492;28;21072;-51
2021/12/25 09:15:09;;;;;;;18.42;13.63;;;6.40;72.30;;;;;;5008500;28;20252;-52
2021/12/25 09:17:36;;;;;;;22.60;14.88;;;6.40;72.20;;;;;;5002567;28;20104;-49
2021/12/25 09:20:05;;;;;;;21.02;13.98;;;6.30;72.10;;;;;;5004466;28;20050;-52
2021/12/25 09:22:33;;;;;;;20.98;14.23;;;6.40;72.30;;;;;;5000420;28;20509;-52
2021/12/25 09:25:00;;;;;;;19.48;13.50;;;6.40;72.30;;;;;;5006865;28;20046;-49
2021/12/25 09:27:26;;;;;;;22.17;14.10;;;6.40;72.40;;;;;;5001218;28;20811;-52
2021/12/25 09:29:53;;;;;;;21.33;14.35;;;6.40;72.30;;;;;;5003944;28;20486;-51
2021/12/25 09:32:20;;;;;;;20.63;14.00;;;6.40;72.40;;;;;;5005574;28;20172;-52
2021/12/25 09:34:47;;;;;;;21.17;14.07;;;6.40;72.50;;;;;;5002164;28;20046;-51
2021/12/25 09:37:14;;;;;;;18.75;13.93;;;6.40;72.50;;;;;;5006220;28;20583;-53
2021/12/25 09:39:41;;;;;;;21.75;14.93;;;6.40;72.40;;;;;;4998606;28;20049;-53
2021/12/25 09:42:08;;;;;;;19.48;13.48;;;6.50;72.40;;;;;;5001390;28;20061;-51
2021/12/25 09:44:34;;;;;;;22.50;15.27;;;6.50;72.20;;;;;;5002274;28;20076;-53
2021/12/25 09:47:02;;;;;;;19.95;14.40;;;6.50;72.20;;;;;;5012381;28;20045;-52
2021/12/25 09:49:29;;;;;;;24.27;15.27;;;6.50;72.10;;;;;;4998085;28;20100;-52
2021/12/25 09:51:56;;;;;;;22.40;14.50;;;6.50;72.00;;;;;;5006596;28;20104;-50
2021/12/25 09:54:26;;;;;;;20.77;15.57;;;6.50;71.90;;;;;;4996648;28;20073;-52
2021/12/25 09:56:56;;;;;;;21.85;15.43;;;6.50;71.90;;;;;;5005863;28;20485;-51
2021/12/25 09:59:23;;;;;;;22.67;15.68;;;6.50;72.00;;;;;;4993961;28;20096;-51
2021/12/25 10:01:56;;;;;;;22.63;14.60;;;6.50;72.00;;;;;;4999914;28;20454;-51
2021/12/25 10:04:38;;;;;;;20.38;14.25;;;6.50;72.10;;;;;;4998470;28;20666;-52
2021/12/25 10:07:28;;;;;;;19.98;14.00;;;6.60;72.00;;;;;;5012060;28;20135;-53
2021/12/25 10:10:05;;;;;;;20.83;15.57;;;6.60;71.70;;;;;;5000415;28;20033;-49
2021/12/25 10:12:41;;;;;;;20.10;13.80;;;6.60;71.90;;;;;;4981894;28;20049;-49
2021/12/25 10:15:22;;;;;;;20.85;14.57;;;6.60;71.70;;;;;;5001388;28;20080;-52
2021/12/25 10:17:54;;;;;;;20.75;14.15;;;6.60;71.80;;;;;;4998480;28;20042;-52
2021/12/25 10:20:24;;;;;;;17.75;14.00;;;6.60;72.00;;;;;;4998104;28;20046;-52
2021/12/25 10:23:04;;;;;;;16.63;13.00;;;6.60;71.90;;;;;;5006095;28;21281;-52
2021/12/25 10:25:45;;;;;;;19.50;13.95;;;6.60;72.30;;;;;;4999705;28;20042;-52
2021/12/25 10:28:15;;;;;;;19.83;14.02;;;6.70;71.60;;;;;;4995542;28;20539;-51
2021/12/25 10:30:52;;;;;;;20.17;14.40;;;6.70;71.40;;;;;;5003813;28;20493;-50
2021/12/25 10:33:39;;;;;;;19.00;13.48;;;6.60;71.00;;;;;;5010304;28;20068;-52
2021/12/25 10:36:29;;;;;;;17.58;13.50;;;6.70;70.90;;;;;;5000107;28;20515;-50
2021/12/25 10:39:11;;;;;;;19.90;13.70;;;6.60;70.60;;;;;;4997678;28;20057;-52
2021/12/25 10:42:03;;;;;;;19.50;12.70;;;6.60;70.70;;;;;;5006727;28;20046;-52
2021/12/25 10:44:40;;;;;;;17.65;12.98;;;6.70;71.10;;;;;;4984694;28;20058;-52
2021/12/25 10:47:20;;;;;;;19.23;13.82;;;6.60;71.10;;;;;;5000828;28;20045;-52
2021/12/25 10:49:52;;;;;;;16.95;13.20;;;6.60;71.10;;;;;;5000857;28;20038;-51
2021/12/25 10:52:27;;;;;;;17.40;12.63;;;6.60;71.00;;;;;;4996159;28;20108;-49
2021/12/25 10:55:04;;;;;;;18.42;12.68;;;6.60;71.10;;;;;;5004038;28;20035;-53
2021/12/25 10:57:42;;;;;;;16.65;13.30;;;6.60;71.30;;;;;;4995272;28;20049;-52
2021/12/25 11:00:33;;;;;;;14.73;11.70;;;6.60;71.30;;;;;;5005137;28;20042;-53
2021/12/25 11:03:09;;;;;;;17.77;12.57;;;6.60;70.90;;;;;;5000378;28;20057;-51
2021/12/25 11:05:44;;;;;;;14.73;11.30;;;6.70;71.60;;;;;;4969798;28;20308;-53
2021/12/25 11:08:11;;;;;;;14.88;10.85;;;6.70;70.70;;;;;;4999481;28;20503;-49
2021/12/25 11:10:46;;;;;;;14.85;11.80;;;6.70;71.10;;;;;;5005202;28;20068;-53
2021/12/25 11:13:33;;;;;;;13.32;10.73;;;6.70;70.70;;;;;;4995638;28;20051;-52
2021/12/25 11:16:12;;;;;;;13.48;10.73;;;6.70;70.20;;;;;;5002855;28;20070;-52
2021/12/25 11:19:05;;;;;;;12.65;10.15;;;6.70;70.70;;;;;;5003603;28;20456;-53
2021/12/25 11:21:44;;;;;;;11.95;10.38;;;6.70;70.20;;;;;;4996413;28;20452;-53
2021/12/25 11:24:17;;;;;;;15.57;10.50;;;6.70;70.40;;;;;;4994261;28;20042;-53
2021/12/25 11:26:46;;;;;;;12.90;10.35;;;6.70;70.50;;;;;;5001438;28;20065;-52
2021/12/25 11:29:16;;;;;;;13.32;10.18;;;6.70;70.50;;;;;;4998232;28;20425;-52
2021/12/25 11:31:43;;;;;;;12.45;10.15;;;6.70;70.60;;;;;;5007883;28;20042;-52
2021/12/25 11:34:11;;;;;;;12.32;9.82;;;6.70;70.70;;;;;;4992907;28;20050;-53
2021/12/25 11:36:40;;;;;;;14.02;10.77;;;6.70;70.70;;;;;;5004982;28;20217;-52
2021/12/25 11:39:07;;;;;;;13.98;10.38;;;6.70;70.50;;;;;;4998826;28;20108;-48
2021/12/25 11:41:36;;;;;;;13.18;10.68;;;6.70;70.40;;;;;;4995495;28;20104;-49
2021/12/25 11:44:06;;;;;;;13.82;10.20;;;6.80;70.80;;;;;;4981700;28;20622;-52
2021/12/25 11:46:40;;;;;;;14.48;10.90;;;6.80;70.40;;;;;;5010866;28;20049;-51
2021/12/25 11:49:10;;;;;;;14.23;11.10;;;6.80;70.00;;;;;;5002172;28;20046;-52
2021/12/25 11:51:40;;;;;;;14.48;9.90;;;6.80;70.00;;;;;;5001582;28;20045;-52
2021/12/25 11:54:58;;;;;;;13.98;9.88;;;6.80;70.00;;;;;;4993875;28;20049;-53
2021/12/25 11:58:19;;;;;;;12.13;9.38;;;6.80;69.50;;;;;;4998290;28;20571;-53
2021/12/25 12:01:14;;;;;;;14.20;9.93;;;6.80;69.70;;;;;;5002800;28;20054;-49
2021/12/25 12:03:44;;;;;;;12.10;9.55;;;6.80;69.40;;;;;;4989383;28;20088;-52
2021/12/25 12:06:13;;;;;;;13.35;8.93;;;6.80;69.70;;;;;;5000357;28;20567;-52
2021/12/25 12:08:55;;;;;;;11.55;9.52;;;6.80;69.50;;;;;;4986800;28;20690;-53
2021/12/25 12:12:03;;;;;;;12.10;8.90;;;6.80;68.80;;;;;;4997565;28;20049;-49
2021/12/25 12:15:11;;;;;;;12.90;10.27;;;6.80;69.10;;;;;;4998461;28;20052;-53
2021/12/25 12:17:58;;;;;;;14.15;9.98;;;6.70;69.20;;;;;;4998792;28;20528;-51
2021/12/25 12:20:36;;;;;;;12.52;10.23;;;6.70;69.80;;;;;;4987571;28;20053;-52
2021/12/25 12:23:34;;;;;;;11.85;8.80;;;6.70;69.40;;;;;;4998926;28;20046;-51
2021/12/25 12:26:08;;;;;;;13.90;9.60;;;6.70;69.20;;;;;;4998198;28;20740;-48
2021/12/25 12:28:54;;;;;;;10.75;7.88;;;6.60;69.60;;;;;;4995654;28;20042;-50
2021/12/25 12:31:45;;;;;;;10.20;8.40;;;6.60;69.20;;;;;;5004277;28;20088;-52
2021/12/25 12:34:29;;;;;;;10.45;8.63;;;6.60;69.00;;;;;;4985717;28;20058;-48
2021/12/25 12:37:14;;;;;;;10.32;7.97;;;6.60;68.90;;;;;;4999848;28;20034;-53
2021/12/25 12:39:43;;;;;;;9.77;7.57;;;6.60;68.80;;;;;;4997639;28;20070;-52
2021/12/25 12:42:13;;;;;;;12.15;8.48;;;6.60;69.20;;;;;;5008369;28;20459;-51
2021/12/25 12:45:19;;;;;;;8.45;7.50;;;6.60;69.10;;;;;;4996088;28;20565;-50
2021/12/25 12:48:08;;;;;;;10.23;7.47;;;6.60;68.50;;;;;;4998283;28;20038;-49
2021/12/25 12:50:37;;;;;;;9.40;7.82;;;6.60;68.50;;;;;;4999811;28;20631;-49
2021/12/25 12:53:09;;;;;;;8.75;7.63;;;6.60;69.30;;;;;;4997100;28;20101;-51
2021/12/25 12:55:38;;;;;;;8.93;6.85;;;6.50;69.20;;;;;;4998499;28;20560;-52
2021/12/25 12:58:10;;;;;;;10.10;7.45;;;6.50;69.30;;;;;;4995650;28;20574;-48
2021/12/25 13:00:38;;;;;;;10.52;6.95;;;6.50;69.20;;;;;;4984656;28;20042;-52
2021/12/25 13:03:06;;;;;;;7.63;6.68;;;6.50;69.30;;;;;;4997618;28;20766;-53
2021/12/25 13:05:38;;;;;;;7.35;6.65;;;6.60;69.10;;;;;;4998211;28;20034;-53
2021/12/25 13:08:17;;;;;;;8.38;7.03;;;6.50;69.00;;;;;;4996266;28;20112;-52
2021/12/25 13:13:25;;;;;;;6.32;5.57;;;6.50;68.80;;;;;;5007383;28;20490;-50
2021/12/25 13:16:02;;;;;;;5.70;5.13;;;6.60;68.50;;;;;;5002171;28;20523;-50
2021/12/25 13:18:33;;;;;;;4.30;3.90;;;6.60;68.90;;;;;;4981303;28;20593;-52
2021/12/25 13:21:01;;;;;;;5.65;3.78;;;6.50;68.70;;;;;;5012388;28;20512;-52
2021/12/25 13:23:37;;;;;;;6.28;4.10;;;6.50;68.50;;;;;;5005938;28;20525;-48
2021/12/25 13:26:08;;;;;;;4.85;4.38;;;6.50;68.00;;;;;;4999620;28;20493;-53
2021/12/25 13:28:41;;;;;;;5.15;3.85;;;6.50;68.10;;;;;;4993169;28;20038;-52
2021/12/25 13:31:18;;;;;;;4.13;3.67;;;6.50;67.90;;;;;;4990306;28;20042;-53
2021/12/25 13:33:52;;;;;;;3.53;3.20;;;6.40;67.60;;;;;;4996065;28;20039;-51
2021/12/25 13:36:30;;;;;;;4.25;2.92;;;6.40;67.60;;;;;;5001868;28;20498;-52
2021/12/25 13:39:00;;;;;;;3.50;3.20;;;6.40;68.00;;;;;;4999418;28;20506;-49
2021/12/25 13:41:29;;;;;;;3.85;3.33;;;6.40;68.00;;;;;;5002439;28;20053;-49
2021/12/25 13:44:12;;;;;;;3.70;3.05;;;6.30;67.90;;;;;;4997448;28;20046;-49
2021/12/25 13:46:54;;;;;;;4.88;3.60;;;6.30;67.60;;;;;;5007094;28;20042;-51
2021/12/25 13:49:50;;;;;;;5.70;3.80;;;6.30;67.30;;;;;;5002731;28;20421;-49
2021/12/25 13:52:20;;;;;;;4.65;3.08;;;6.30;67.20;;;;;;4993336;28;20112;-52
2021/12/25 13:54:55;;;;;;;4.38;3.50;;;6.20;67.90;;;;;;4986767;28;20049;-54
2021/12/25 13:57:25;;;;;;;4.35;3.00;;;6.20;67.90;;;;;;5008654;28;20041;-51
2021/12/25 13:59:55;;;;;;;4.45;3.30;;;6.20;68.60;;;;;;5003622;28;20482;-51
2021/12/25 14:02:23;;;;;;;3.10;2.80;;;6.20;67.90;;;;;;5005807;28;20080;-53
2021/12/25 14:04:52;;;;;;;4.07;3.50;;;6.20;67.80;;;;;;5001022;28;20081;-54
2021/12/25 14:07:30;;;;;;;4.88;3.67;;;6.20;67.80;;;;;;5005030;28;20112;-53
2021/12/25 14:10:14;;;;;;;5.32;3.65;;;6.20;67.70;;;;;;5000314;28;20027;-52
2021/12/25 14:12:46;;;;;;;3.97;3.42;;;6.20;67.70;;;;;;5003233;28;20485;-48
2021/12/25 14:15:15;;;;;;;4.30;3.20;;;6.10;67.80;;;;;;5004456;28;20042;-48
2021/12/25 14:17:44;;;;;;;4.05;3.58;;;6.10;67.80;;;;;;5003804;28;20542;-51
2021/12/25 14:20:23;;;;;;;5.43;3.67;;;6.10;67.90;;;;;;5005727;28;20057;-50
2021/12/25 14:23:08;;;;;;;3.35;3.05;;;6.10;67.90;;;;;;5001242;28;20054;-51
2021/12/25 14:25:53;;;;;;;3.40;2.88;;;6.10;67.40;;;;;;4984675;28;20120;-53
2021/12/25 14:28:29;;;;;;;4.13;3.00;;;6.10;67.80;;;;;;4999027;28;20041;-53